Time;durP1;ratioP1;P1;durP2;ratioP2;P2;SDS_P1;SDS_P2;PMS_P1;PMS_P2;Temp;Humidity;BMP_temperature;BMP_pressure;BME280_temperature;BME280_humidity;BME280_pressure;Samples;Min_cycle;Max_cycle;Signal;HPM_P1;HPM_P2
2021/11/15 00:14:32;;;;;;;9.48;6.70;;;22.40;62.30;;;;;;31251408;28;20049;-39
2021/11/15 00:29:34;;;;;;;7.15;6.43;;;22.40;62.40;;;;;;31249770;28;20057;-35
2021/11/15 00:44:36;;;;;;;8.25;7.05;;;22.30;62.50;;;;;;31386304;28;20057;-36
2021/11/15 00:59:38;;;;;;;7.93;6.38;;;22.30;62.70;;;;;;31497961;28;20037;-35
2021/11/15 01:14:40;;;;;;;7.65;5.90;;;22.30;63.00;;;;;;31520608;28;20049;-42
2021/11/15 01:29:44;;;;;;;5.78;5.10;;;22.60;63.00;;;;;;31516490;28;20056;-35
2021/11/15 01:44:47;;;;;;;8.02;5.70;;;23.00;63.20;;;;;;31516850;28;20053;-35
2021/11/15 01:59:49;;;;;;;6.95;5.20;;;23.00;63.50;;;;;;31512591;28;20052;-39
2021/11/15 02:14:52;;;;;;;5.55;4.60;;;22.90;63.50;;;;;;31512896;28;20049;-36
2021/11/15 02:29:55;;;;;;;7.35;5.47;;;22.80;63.40;;;;;;31514446;28;20045;-36
2021/11/15 02:44:57;;;;;;;6.82;4.60;;;22.70;63.60;;;;;;31506947;28;20049;-41
2021/11/15 02:59:59;;;;;;;5.35;4.65;;;22.60;63.50;;;;;;31509484;28;20041;-34
2021/11/15 03:15:01;;;;;;;5.45;4.63;;;22.60;63.80;;;;;;31507641;28;20045;-39
2021/11/15 03:30:05;;;;;;;4.95;4.40;;;22.50;63.90;;;;;;31500060;28;20072;-34
2021/11/15 03:45:08;;;;;;;4.57;4.18;;;22.50;63.90;;;;;;31503668;28;20057;-34
2021/11/15 04:00:13;;;;;;;4.00;3.35;;;22.40;63.80;;;;;;31500175;28;20049;-41
2021/11/15 04:15:15;;;;;;;6.72;3.75;;;22.40;63.80;;;;;;31497009;28;20065;-46
2021/11/15 04:30:18;;;;;;;6.15;4.57;;;22.40;64.00;;;;;;31495847;28;20098;-39
2021/11/15 04:45:20;;;;;;;13.82;4.15;;;22.30;64.10;;;;;;31517874;28;20045;-35
2021/11/15 05:00:26;;;;;;;5.20;4.10;;;22.30;64.20;;;;;;31520320;28;20069;-36
2021/11/15 05:15:29;;;;;;;6.38;3.50;;;22.40;63.90;;;;;;31520979;28;20101;-40
2021/11/15 05:30:31;;;;;;;5.63;3.45;;;22.90;63.80;;;;;;31519017;28;20071;-37
2021/11/15 05:45:33;;;;;;;9.38;4.57;;;22.90;63.70;;;;;;31517175;28;20166;-41
2021/11/15 06:00:36;;;;;;;184.00;132.82;;;22.90;63.80;;;;;;31485381;28;20045;-42
2021/11/15 06:15:39;;;;;;;75.28;47.35;;;22.50;60.60;;;;;;31368751;28;20049;-43
2021/11/15 06:30:41;;;;;;;54.53;39.70;;;22.40;62.90;;;;;;31372060;28;20052;-44
2021/11/15 06:45:45;;;;;;;52.10;34.42;;;22.30;61.30;;;;;;31506218;28;20060;-42
2021/11/15 07:00:47;;;;;;;46.63;29.33;;;22.10;61.60;;;;;;31494769;28;20096;-38
2021/11/15 07:15:50;;;;;;;37.38;25.05;;;22.00;60.20;;;;;;31504928;28;20045;-40
2021/11/15 07:30:55;;;;;;;30.92;21.13;;;22.50;59.90;;;;;;31507431;28;20095;-40
2021/11/15 07:45:59;;;;;;;29.23;19.95;;;22.80;60.20;;;;;;31503134;28;20053;-38
2021/11/15 08:01:01;;;;;;;44.25;33.30;;;22.80;60.40;;;;;;31497071;28;20047;-38
2021/11/15 08:16:05;;;;;;;55.75;39.60;;;22.60;60.70;;;;;;31499526;28;20053;-36
2021/11/15 08:31:09;;;;;;;45.38;35.55;;;22.50;60.20;;;;;;31498135;28;20045;-36
2021/11/15 08:46:15;;;;;;;63.03;46.30;;;22.50;60.40;;;;;;31498392;28;20116;-44
2021/11/15 09:01:18;;;;;;;71.43;50.40;;;22.20;60.70;;;;;;31484828;28;20037;-42
2021/11/15 09:16:20;;;;;;;63.65;45.58;;;22.30;59.90;;;;;;31482660;28;20049;-35
2021/11/15 09:31:24;;;;;;;54.95;43.00;;;22.20;60.00;;;;;;31509433;28;20041;-37
2021/11/15 09:46:28;;;;;;;51.78;38.80;;;22.20;60.30;;;;;;31515396;28;20056;-37
2021/11/15 10:01:30;;;;;;;53.10;38.25;;;22.10;60.60;;;;;;31471819;28;20049;-44
2021/11/15 10:16:34;;;;;;;64.05;46.38;;;22.00;61.10;;;;;;31384126;28;20429;-35
2021/11/15 10:32:04;;;;;;;62.17;45.05;;;21.90;61.40;;;;;;31393555;28;20052;-35
2021/11/15 10:47:06;;;;;;;55.25;40.78;;;21.90;61.30;;;;;;31463871;28;20049;-35
2021/11/15 11:02:27;;;;;;;52.15;39.42;;;22.00;61.10;;;;;;31397739;28;20048;-35
2021/11/15 11:17:30;;;;;;;42.70;35.05;;;22.50;60.50;;;;;;31281116;28;20048;-36
2021/11/15 11:32:32;;;;;;;43.13;33.50;;;22.80;60.30;;;;;;31415822;28;20080;-36
2021/11/15 11:47:34;;;;;;;43.83;32.92;;;22.80;60.40;;;;;;31369671;28;20069;-35
2021/11/15 12:02:37;;;;;;;35.28;28.05;;;22.70;60.40;;;;;;31370254;28;20052;-36
2021/11/15 12:17:45;;;;;;;36.88;27.02;;;22.60;60.50;;;;;;31370544;28;20049;-36
2021/11/15 12:33:08;;;;;;;41.40;25.58;;;22.50;60.60;;;;;;31371157;28;20077;-37
2021/11/15 12:48:45;;;;;;;30.27;23.42;;;22.40;60.70;;;;;;31369819;28;20053;-35
2021/11/15 13:03:54;;;;;;;40.47;23.75;;;22.30;60.60;;;;;;31386218;28;20076;-37
2021/11/15 13:18:58;;;;;;;23.17;19.47;;;22.30;60.70;;;;;;31392417;28;20096;-35
2021/11/15 13:34:00;;;;;;;21.10;18.77;;;22.60;60.30;;;;;;31390684;28;20136;-37
2021/11/15 13:49:05;;;;;;;23.33;18.67;;;22.80;60.30;;;;;;31388947;28;20506;-35
2021/11/15 14:04:08;;;;;;;20.38;16.80;;;22.80;60.20;;;;;;31386964;28;20045;-35
2021/11/15 14:41:11;;;;;;;23.05;15.93;;;22.60;60.50;;;;;;31490250;27;10002081;-41
2021/11/15 14:56:13;;;;;;;20.20;15.30;;;22.50;60.50;;;;;;31842930;28;20107;-34
2021/11/15 15:11:15;;;;;;;16.98;13.45;;;22.50;60.30;;;;;;31841393;28;20044;-39
2021/11/15 15:26:18;;;;;;;17.58;13.52;;;22.30;60.30;;;;;;31840032;28;20055;-37
2021/11/15 15:41:20;;;;;;;16.00;13.30;;;22.30;60.50;;;;;;31765036;28;20086;-41
2021/11/15 15:56:27;;;;;;;18.38;12.40;;;22.20;60.40;;;;;;31751840;28;20055;-42
2021/11/15 16:12:42;;;;;;;19.13;12.27;;;22.00;60.90;;;;;;31749429;28;20044;-41
2021/11/15 16:27:02;;;;;;;15.73;11.38;;;22.00;61.00;;;;;;31384068;27;10000077;-41
2021/11/15 16:42:04;;;;;;;21.10;12.93;;;21.90;61.10;;;;;;31620532;28;20060;-47
2021/11/15 16:57:09;;;;;;;16.23;12.13;;;21.90;60.60;;;;;;31624212;28;20071;-35
2021/11/15 17:12:12;;;;;;;20.73;12.13;;;21.90;61.90;;;;;;31563233;28;20100;-38
2021/11/15 17:27:14;;;;;;;17.40;11.63;;;22.20;60.20;;;;;;31578769;28;20098;-47
2021/11/15 17:42:16;;;;;;;30.58;11.82;;;22.70;60.30;;;;;;31621261;28;20033;-44
2021/11/15 17:57:19;;;;;;;20.02;11.65;;;22.90;60.70;;;;;;31620754;28;20098;-49
2021/11/15 18:12:22;;;;;;;15.05;11.52;;;22.90;60.80;;;;;;31619558;28;20044;-38
2021/11/15 18:27:24;;;;;;;16.77;11.25;;;22.90;60.70;;;;;;31619211;28;20057;-42
2021/11/15 18:42:26;;;;;;;18.83;10.85;;;22.80;61.00;;;;;;31613362;28;20040;-35
2021/11/15 18:57:28;;;;;;;21.95;11.38;;;22.70;61.30;;;;;;31615838;28;20048;-39
2021/11/15 19:12:30;;;;;;;12.57;9.30;;;22.80;61.20;;;;;;31624439;28;20072;-37
2021/11/15 19:27:35;;;;;;;12.27;9.23;;;22.90;61.50;;;;;;31614507;28;20127;-39
2021/11/15 19:42:45;;;;;;;24.10;10.25;;;22.90;62.00;;;;;;31619483;28;20083;-34
2021/11/15 19:57:54;;;;;;;12.82;9.18;;;22.70;61.90;;;;;;31601796;28;20045;-40
2021/11/15 20:12:58;;;;;;;15.98;8.52;;;22.70;61.90;;;;;;31634070;28;20182;-34
2021/11/15 20:28:00;;;;;;;10.80;7.47;;;22.70;61.80;;;;;;31630748;28;20135;-38
2021/11/15 20:43:07;;;;;;;10.32;7.57;;;22.70;61.80;;;;;;31628607;28;20181;-36
2021/11/15 20:58:09;;;;;;;10.82;7.80;;;22.60;61.80;;;;;;31626080;28;20123;-34
2021/11/15 21:13:11;;;;;;;10.75;7.88;;;22.60;61.70;;;;;;31628008;28;20068;-34
2021/11/15 21:28:14;;;;;;;12.13;9.40;;;22.60;61.80;;;;;;31621041;28;20119;-36
2021/11/15 21:43:17;;;;;;;13.02;8.85;;;22.30;62.20;;;;;;31621870;28;20064;-36
2021/11/15 21:58:19;;;;;;;15.20;10.55;;;22.20;62.40;;;;;;31620043;28;20071;-35
2021/11/15 22:13:21;;;;;;;12.70;9.35;;;22.10;62.50;;;;;;31619203;28;20052;-36
2021/11/15 22:28:24;;;;;;;11.68;9.32;;;22.20;62.70;;;;;;31620349;28;20049;-33
2021/11/15 22:43:26;;;;;;;11.95;8.93;;;22.10;62.80;;;;;;31636977;28;20100;-34
2021/11/15 22:58:29;;;;;;;12.77;8.95;;;22.00;62.80;;;;;;31644789;28;20045;-34
2021/11/15 23:13:32;;;;;;;33.40;19.33;;;22.30;63.40;;;;;;31641504;28;20044;-36
2021/11/15 23:28:37;;;;;;;24.23;16.35;;;22.80;61.60;;;;;;31638075;28;20056;-41
2021/11/15 23:43:39;;;;;;;21.17;16.05;;;23.00;61.40;;;;;;31599142;28;20062;-41
2021/11/15 23:58:42;;;;;;;17.92;14.45;;;23.10;61.60;;;;;;31636096;28;20044;-40
